sensor_id;sensor_type;location;lat;lon;timestamp;pressure;altitude;pressure_sealevel;temperature;humidity
28456;BME280;15682;56.742;38.866;2024-03-17T00:00:20;99750.0;;;-0.7;89.0
28456;BME280;15682;56.742;38.866;2024-03-17T00:02:19;99750.0;;;-0.7;89.0
28456;BME280;15682;56.742;38.866;2024-03-17T00:04:19;99750.0;;;-0.7;89.2
28456;BME280;15682;56.742;38.866;2024-03-17T00:06:19;99750.0;;;-0.7;89.2
28456;BME280;15682;56.742;38.866;2024-03-17T00:08:19;99750.0;;;-0.7;89.2
28456;BME280;15682;56.742;38.866;2024-03-17T00:10:19;99750.0;;;-0.7;89.2
28456;BME280;15682;56.742;38.866;2024-03-17T00:12:19;99750.0;;;-0.7;89.2
28456;BME280;15682;56.742;38.866;2024-03-17T00:14:19;99750.0;;;-0.7;88.9
28456;BME280;15682;56.742;38.866;2024-03-17T00:16:19;99750.0;;;-0.8;88.9
28456;BME280;15682;56.742;38.866;2024-03-17T00:18:19;99750.0;;;-0.8;88.9
28456;BME280;15682;56.742;38.866;2024-03-17T00:20:19;99750.0;;;-0.8;88.9
28456;BME280;15682;56.742;38.866;2024-03-17T00:22:19;99750.0;;;-0.7;88.9
28456;BME280;15682;56.742;38.866;2024-03-17T00:24:19;99740.0;;;-0.7;89.0
28456;BME280;15682;56.742;38.866;2024-03-17T00:26:19;99740.0;;;-0.8;89.0
28456;BME280;15682;56.742;38.866;2024-03-17T00:28:19;99740.0;;;-0.8;89.0
28456;BME280;15682;56.742;38.866;2024-03-17T00:30:19;99730.0;;;-0.8;89.0
28456;BME280;15682;56.742;38.866;2024-03-17T00:32:18;99730.0;;;-0.8;89.0
28456;BME280;15682;56.742;38.866;2024-03-17T00:34:18;99730.0;;;-0.8;89.1
28456;BME280;15682;56.742;38.866;2024-03-17T00:36:18;99730.0;;;-0.8;89.1
28456;BME280;15682;56.742;38.866;2024-03-17T00:38:18;99730.0;;;-0.8;89.1
28456;BME280;15682;56.742;38.866;2024-03-17T00:40:18;99730.0;;;-0.9;89.1
28456;BME280;15682;56.742;38.866;2024-03-17T00:42:18;99730.0;;;-0.9;89.1
28456;BME280;15682;56.742;38.866;2024-03-17T00:44:18;99730.0;;;-0.9;89.5
28456;BME280;15682;56.742;38.866;2024-03-17T00:46:20;99730.0;;;-0.9;89.5
28456;BME280;15682;56.742;38.866;2024-03-17T00:48:18;99730.0;;;-0.9;89.5
28456;BME280;15682;56.742;38.866;2024-03-17T00:50:18;99730.0;;;-1.0;89.5
28456;BME280;15682;56.742;38.866;2024-03-17T00:52:17;99730.0;;;-1.0;89.5
28456;BME280;15682;56.742;38.866;2024-03-17T00:54:17;99730.0;;;-1.0;89.4
28456;BME280;15682;56.742;38.866;2024-03-17T00:56:17;99720.0;;;-1.0;89.4
28456;BME280;15682;56.742;38.866;2024-03-17T00:58:18;99720.0;;;-1.0;89.4
28456;BME280;15682;56.742;38.866;2024-03-17T01:00:18;99720.0;;;-1.0;89.4
28456;BME280;15682;56.742;38.866;2024-03-17T01:02:17;99720.0;;;-1.0;89.4
28456;BME280;15682;56.742;38.866;2024-03-17T01:04:17;99720.0;;;-1.0;89.5
28456;BME280;15682;56.742;38.866;2024-03-17T01:06:17;99720.0;;;-1.0;89.5
28456;BME280;15682;56.742;38.866;2024-03-17T01:08:17;99720.0;;;-1.0;89.5
28456;BME280;15682;56.742;38.866;2024-03-17T01:10:17;99720.0;;;-1.0;89.5
28456;BME280;15682;56.742;38.866;2024-03-17T01:12:17;99720.0;;;-1.0;89.5
28456;BME280;15682;56.742;38.866;2024-03-17T01:14:17;99720.0;;;-1.1;89.7
28456;BME280;15682;56.742;38.866;2024-03-17T01:16:16;99720.0;;;-1.1;89.7
28456;BME280;15682;56.742;38.866;2024-03-17T01:18:16;99720.0;;;-1.1;89.7
28456;BME280;15682;56.742;38.866;2024-03-17T01:20:16;99720.0;;;-1.1;89.7
28456;BME280;15682;56.742;38.866;2024-03-17T01:22:16;99720.0;;;-1.1;89.7
28456;BME280;15682;56.742;38.866;2024-03-17T01:24:17;99720.0;;;-1.1;90.1
28456;BME280;15682;56.742;38.866;2024-03-17T01:26:16;99720.0;;;-1.2;90.1
28456;BME280;15682;56.742;38.866;2024-03-17T01:28:17;99720.0;;;-1.3;90.1
28456;BME280;15682;56.742;38.866;2024-03-17T01:30:16;99720.0;;;-1.3;90.1
28456;BME280;15682;56.742;38.866;2024-03-17T01:32:16;99720.0;;;-1.3;90.1
28456;BME280;15682;56.742;38.866;2024-03-17T01:34:16;99720.0;;;-1.3;90.1
28456;BME280;15682;56.742;38.866;2024-03-17T01:36:16;99720.0;;;-1.2;90.1
28456;BME280;15682;56.742;38.866;2024-03-17T01:38:15;99720.0;;;-1.2;90.1
28456;BME280;15682;56.742;38.866;2024-03-17T01:40:15;99720.0;;;-1.2;90.1
28456;BME280;15682;56.742;38.866;2024-03-17T01:42:15;99720.0;;;-1.2;90.1
28456;BME280;15682;56.742;38.866;2024-03-17T01:44:25;99720.0;;;-1.2;90.3
28456;BME280;15682;56.742;38.866;2024-03-17T01:46:17;99720.0;;;-1.3;90.3
28456;BME280;15682;56.742;38.866;2024-03-17T01:48:15;99720.0;;;-1.4;90.3
28456;BME280;15682;56.742;38.866;2024-03-17T01:50:15;99720.0;;;-1.4;90.3
28456;BME280;15682;56.742;38.866;2024-03-17T01:52:15;99720.0;;;-1.4;90.3
28456;BME280;15682;56.742;38.866;2024-03-17T01:54:15;99720.0;;;-1.4;90.7
28456;BME280;15682;56.742;38.866;2024-03-17T01:56:16;99700.0;;;-1.5;90.8
28456;BME280;15682;56.742;38.866;2024-03-17T01:58:15;99700.0;;;-1.5;90.8
28456;BME280;15682;56.742;38.866;2024-03-17T02:00:15;99700.0;;;-1.5;90.8
28456;BME280;15682;56.742;38.866;2024-03-17T02:02:14;99690.0;;;-1.5;90.8
28456;BME280;15682;56.742;38.866;2024-03-17T02:04:14;99690.0;;;-1.5;91.1
28456;BME280;15682;56.742;38.866;2024-03-17T02:06:14;99690.0;;;-1.5;91.1
28456;BME280;15682;56.742;38.866;2024-03-17T02:08:14;99690.0;;;-1.5;91.1
28456;BME280;15682;56.742;38.866;2024-03-17T02:10:14;99690.0;;;-1.5;91.1
28456;BME280;15682;56.742;38.866;2024-03-17T02:12:14;99690.0;;;-1.5;91.1
28456;BME280;15682;56.742;38.866;2024-03-17T02:14:14;99690.0;;;-1.5;91.0
28456;BME280;15682;56.742;38.866;2024-03-17T02:16:14;99690.0;;;-1.4;91.6
28456;BME280;15682;56.742;38.866;2024-03-17T02:18:14;99690.0;;;-1.5;90.8
28456;BME280;15682;56.742;38.866;2024-03-17T02:20:14;99690.0;;;-1.5;90.8
28456;BME280;15682;56.742;38.866;2024-03-17T02:22:14;99690.0;;;-1.5;90.8
28456;BME280;15682;56.742;38.866;2024-03-17T02:24:13;99680.0;;;-1.5;90.9
28456;BME280;15682;56.742;38.866;2024-03-17T02:26:13;99680.0;;;-1.6;90.9
28456;BME280;15682;56.742;38.866;2024-03-17T02:28:13;99680.0;;;-1.6;90.9
28456;BME280;15682;56.742;38.866;2024-03-17T02:30:13;99670.0;;;-1.6;90.9
28456;BME280;15682;56.742;38.866;2024-03-17T02:32:13;99670.0;;;-1.7;90.9
28456;BME280;15682;56.742;38.866;2024-03-17T02:34:13;99670.0;;;-1.7;91.9
28456;BME280;15682;56.742;38.866;2024-03-17T02:36:13;99670.0;;;-1.6;91.2
28456;BME280;15682;56.742;38.866;2024-03-17T02:38:15;99670.0;;;-1.6;91.2
28456;BME280;15682;56.742;38.866;2024-03-17T02:40:13;99670.0;;;-1.6;91.2
28456;BME280;15682;56.742;38.866;2024-03-17T02:42:13;99670.0;;;-1.8;91.2
28456;BME280;15682;56.742;38.866;2024-03-17T02:44:12;99670.0;;;-1.8;91.4
28456;BME280;15682;56.742;38.866;2024-03-17T02:46:13;99670.0;;;-1.8;91.8
28456;BME280;15682;56.742;38.866;2024-03-17T02:48:12;99670.0;;;-1.8;91.8
28456;BME280;15682;56.742;38.866;2024-03-17T02:50:12;99670.0;;;-1.8;91.8
28456;BME280;15682;56.742;38.866;2024-03-17T02:52:12;99670.0;;;-1.8;91.8
28456;BME280;15682;56.742;38.866;2024-03-17T02:54:12;99670.0;;;-1.8;91.5
28456;BME280;15682;56.742;38.866;2024-03-17T02:56:13;99670.0;;;-1.9;91.5
28456;BME280;15682;56.742;38.866;2024-03-17T02:58:12;99670.0;;;-1.9;91.5
28456;BME280;15682;56.742;38.866;2024-03-17T03:00:12;99670.0;;;-1.9;91.5
28456;BME280;15682;56.742;38.866;2024-03-17T03:02:12;99670.0;;;-1.9;91.5
28456;BME280;15682;56.742;38.866;2024-03-17T03:04:12;99670.0;;;-1.9;91.6
28456;BME280;15682;56.742;38.866;2024-03-17T03:06:11;99670.0;;;-1.9;91.6
28456;BME280;15682;56.742;38.866;2024-03-17T03:08:11;99670.0;;;-1.9;91.6
28456;BME280;15682;56.742;38.866;2024-03-17T03:10:11;99670.0;;;-1.9;91.6
28456;BME280;15682;56.742;38.866;2024-03-17T03:12:11;99660.0;;;-1.9;91.6
28456;BME280;15682;56.742;38.866;2024-03-17T03:14:11;99660.0;;;-1.9;91.8
28456;BME280;15682;56.742;38.866;2024-03-17T03:16:12;99660.0;;;-2.0;91.8
28456;BME280;15682;56.742;38.866;2024-03-17T03:18:11;99660.0;;;-2.0;91.8
28456;BME280;15682;56.742;38.866;2024-03-17T03:20:11;99660.0;;;-2.0;91.8
28456;BME280;15682;56.742;38.866;2024-03-17T03:22:11;99660.0;;;-2.0;91.8
28456;BME280;15682;56.742;38.866;2024-03-17T03:24:11;99650.0;;;-2.0;91.9
28456;BME280;15682;56.742;38.866;2024-03-17T03:26:11;99650.0;;;-2.0;92.4
28456;BME280;15682;56.742;38.866;2024-03-17T03:28:10;99650.0;;;-2.0;92.4
28456;BME280;15682;56.742;38.866;2024-03-17T03:30:11;99650.0;;;-2.0;91.9
28456;BME280;15682;56.742;38.866;2024-03-17T03:32:10;99650.0;;;-2.0;91.9
28456;BME280;15682;56.742;38.866;2024-03-17T03:34:10;99650.0;;;-2.0;92.3
28456;BME280;15682;56.742;38.866;2024-03-17T03:36:12;99650.0;;;-2.0;92.3
28456;BME280;15682;56.742;38.866;2024-03-17T03:38:10;99650.0;;;-2.0;92.3
28456;BME280;15682;56.742;38.866;2024-03-17T03:40:11;99650.0;;;-2.0;92.3
28456;BME280;15682;56.742;38.866;2024-03-17T03:42:10;99650.0;;;-2.0;92.3
28456;BME280;15682;56.742;38.866;2024-03-17T03:44:10;99650.0;;;-2.0;92.4
28456;BME280;15682;56.742;38.866;2024-03-17T03:46:10;99640.0;;;-2.0;92.3
28456;BME280;15682;56.742;38.866;2024-03-17T03:48:10;99640.0;;;-2.0;92.3
28456;BME280;15682;56.742;38.866;2024-03-17T03:50:10;99640.0;;;-2.0;92.3
28456;BME280;15682;56.742;38.866;2024-03-17T03:52:09;99640.0;;;-2.0;92.3
28456;BME280;15682;56.742;38.866;2024-03-17T03:54:10;99630.0;;;-1.9;92.1
28456;BME280;15682;56.742;38.866;2024-03-17T03:56:09;99630.0;;;-2.0;91.7
28456;BME280;15682;56.742;38.866;2024-03-17T03:58:09;99630.0;;;-2.0;91.7
28456;BME280;15682;56.742;38.866;2024-03-17T04:00:10;99630.0;;;-2.0;91.7
28456;BME280;15682;56.742;38.866;2024-03-17T04:02:09;99630.0;;;-2.0;91.7
28456;BME280;15682;56.742;38.866;2024-03-17T04:04:09;99630.0;;;-2.0;91.8
28456;BME280;15682;56.742;38.866;2024-03-17T04:06:10;99630.0;;;-2.0;91.8
28456;BME280;15682;56.742;38.866;2024-03-17T04:08:09;99630.0;;;-2.0;91.8
28456;BME280;15682;56.742;38.866;2024-03-17T04:10:09;99630.0;;;-1.8;91.8
28456;BME280;15682;56.742;38.866;2024-03-17T04:12:09;99630.0;;;-1.7;91.2
28456;BME280;15682;56.742;38.866;2024-03-17T04:14:08;99630.0;;;-1.5;89.9
28456;BME280;15682;56.742;38.866;2024-03-17T04:16:09;99630.0;;;-1.4;89.9
28456;BME280;15682;56.742;38.866;2024-03-17T04:18:08;99630.0;;;-1.2;89.4
28456;BME280;15682;56.742;38.866;2024-03-17T04:20:09;99630.0;;;-1.2;88.7
28456;BME280;15682;56.742;38.866;2024-03-17T04:22:08;99640.0;;;-1.2;88.7
28456;BME280;15682;56.742;38.866;2024-03-17T04:24:08;99640.0;;;-1.3;88.7
28456;BME280;15682;56.742;38.866;2024-03-17T04:26:09;99640.0;;;-1.3;89.4
28456;BME280;15682;56.742;38.866;2024-03-17T04:28:08;99630.0;;;-1.3;89.4
28456;BME280;15682;56.742;38.866;2024-03-17T04:30:08;99630.0;;;-1.3;89.4
28456;BME280;15682;56.742;38.866;2024-03-17T04:32:08;99630.0;;;-1.3;89.4
28456;BME280;15682;56.742;38.866;2024-03-17T04:34:08;99630.0;;;-1.3;89.0
28456;BME280;15682;56.742;38.866;2024-03-17T04:36:08;99630.0;;;-1.2;88.8
28456;BME280;15682;56.742;38.866;2024-03-17T04:38:08;99630.0;;;-1.2;88.8
28456;BME280;15682;56.742;38.866;2024-03-17T04:40:09;99630.0;;;-1.1;88.8
28456;BME280;15682;56.742;38.866;2024-03-17T04:42:08;99630.0;;;-1.1;88.8
28456;BME280;15682;56.742;38.866;2024-03-17T04:44:07;99630.0;;;-1.2;88.7
28456;BME280;15682;56.742;38.866;2024-03-17T04:46:08;99630.0;;;-1.3;88.7
28456;BME280;15682;56.742;38.866;2024-03-17T04:48:07;99630.0;;;-1.1;88.7
28456;BME280;15682;56.742;38.866;2024-03-17T04:50:08;99630.0;;;-1.1;88.7
28456;BME280;15682;56.742;38.866;2024-03-17T04:52:08;99630.0;;;-1.1;88.3
28456;BME280;15682;56.742;38.866;2024-03-17T04:54:07;99630.0;;;-1.1;88.2
28456;BME280;15682;56.742;38.866;2024-03-17T04:56:07;99630.0;;;-0.9;88.2
28456;BME280;15682;56.742;38.866;2024-03-17T04:58:07;99630.0;;;-0.9;87.7
28456;BME280;15682;56.742;38.866;2024-03-17T05:00:08;99630.0;;;-0.9;87.7
28456;BME280;15682;56.742;38.866;2024-03-17T05:02:07;99630.0;;;-0.9;87.7
28456;BME280;15682;56.742;38.866;2024-03-17T05:04:07;99630.0;;;-0.8;88.0
28456;BME280;15682;56.742;38.866;2024-03-17T05:06:07;99630.0;;;-0.8;88.0
28456;BME280;15682;56.742;38.866;2024-03-17T05:08:07;99630.0;;;-0.8;88.0
28456;BME280;15682;56.742;38.866;2024-03-17T05:10:07;99630.0;;;-0.8;88.0
28456;BME280;15682;56.742;38.866;2024-03-17T05:12:07;99630.0;;;-0.8;88.0
28456;BME280;15682;56.742;38.866;2024-03-17T05:14:07;99630.0;;;-0.6;87.2
28456;BME280;15682;56.742;38.866;2024-03-17T05:16:07;99630.0;;;-0.6;87.2
28456;BME280;15682;56.742;38.866;2024-03-17T05:18:06;99630.0;;;-0.6;87.2
28456;BME280;15682;56.742;38.866;2024-03-17T05:20:07;99630.0;;;-0.6;87.2
28456;BME280;15682;56.742;38.866;2024-03-17T05:22:06;99630.0;;;-0.4;86.6
28456;BME280;15682;56.742;38.866;2024-03-17T05:24:06;99630.0;;;-0.4;86.4
28456;BME280;15682;56.742;38.866;2024-03-17T05:26:06;99630.0;;;-0.4;86.4
28456;BME280;15682;56.742;38.866;2024-03-17T05:28:06;99630.0;;;-0.4;86.4
28456;BME280;15682;56.742;38.866;2024-03-17T05:30:07;99630.0;;;-0.3;86.0
28456;BME280;15682;56.742;38.866;2024-03-17T05:32:06;99630.0;;;-0.3;86.0
28456;BME280;15682;56.742;38.866;2024-03-17T05:34:06;99630.0;;;-0.2;85.8
28456;BME280;15682;56.742;38.866;2024-03-17T05:36:06;99630.0;;;-0.1;85.8
28456;BME280;15682;56.742;38.866;2024-03-17T05:38:06;99630.0;;;-0.0;85.8
28456;BME280;15682;56.742;38.866;2024-03-17T05:40:07;99630.0;;;-0.2;85.8
28456;BME280;15682;56.742;38.866;2024-03-17T05:42:06;99630.0;;;-0.1;85.8
28456;BME280;15682;56.742;38.866;2024-03-17T05:44:06;99630.0;;;-0.0;85.5
28456;BME280;15682;56.742;38.866;2024-03-17T05:46:07;99630.0;;;-0.0;85.4
28456;BME280;15682;56.742;38.866;2024-03-17T05:48:06;99630.0;;;-0.0;85.4
28456;BME280;15682;56.742;38.866;2024-03-17T05:50:06;99630.0;;;0.2;85.4
28456;BME280;15682;56.742;38.866;2024-03-17T05:52:06;99630.0;;;0.3;84.7
28456;BME280;15682;56.742;38.866;2024-03-17T05:54:06;99630.0;;;0.3;84.6
28456;BME280;15682;56.742;38.866;2024-03-17T05:56:06;99630.0;;;0.4;84.1
28456;BME280;15682;56.742;38.866;2024-03-17T05:58:06;99630.0;;;0.4;84.1
28456;BME280;15682;56.742;38.866;2024-03-17T06:00:07;99640.0;;;0.4;84.1
28456;BME280;15682;56.742;38.866;2024-03-17T06:02:06;99640.0;;;0.4;84.1
28456;BME280;15682;56.742;38.866;2024-03-17T06:04:06;99640.0;;;0.6;84.2
28456;BME280;15682;56.742;38.866;2024-03-17T06:06:06;99640.0;;;0.5;84.2
28456;BME280;15682;56.742;38.866;2024-03-17T06:08:06;99640.0;;;0.5;84.2
28456;BME280;15682;56.742;38.866;2024-03-17T06:10:07;99640.0;;;0.7;84.2
28456;BME280;15682;56.742;38.866;2024-03-17T06:12:06;99640.0;;;0.7;84.2
28456;BME280;15682;56.742;38.866;2024-03-17T06:14:05;99640.0;;;0.9;83.7
28456;BME280;15682;56.742;38.866;2024-03-17T06:16:06;99630.0;;;0.9;83.4
28456;BME280;15682;56.742;38.866;2024-03-17T06:18:06;99630.0;;;1.0;83.4
28456;BME280;15682;56.742;38.866;2024-03-17T06:20:07;99630.0;;;1.1;82.9
28456;BME280;15682;56.742;38.866;2024-03-17T06:22:05;99630.0;;;1.1;82.9
28456;BME280;15682;56.742;38.866;2024-03-17T06:24:06;99630.0;;;1.4;83.4
28456;BME280;15682;56.742;38.866;2024-03-17T06:26:05;99630.0;;;1.4;82.3
28456;BME280;15682;56.742;38.866;2024-03-17T06:28:06;99630.0;;;1.5;81.7
28456;BME280;15682;56.742;38.866;2024-03-17T06:30:07;99630.0;;;1.5;81.7
28456;BME280;15682;56.742;38.866;2024-03-17T06:32:06;99630.0;;;1.7;81.7
28456;BME280;15682;56.742;38.866;2024-03-17T06:34:05;99630.0;;;1.7;81.8
28456;BME280;15682;56.742;38.866;2024-03-17T06:36:06;99630.0;;;1.6;81.8
28456;BME280;15682;56.742;38.866;2024-03-17T06:38:06;99630.0;;;1.6;82.2
28456;BME280;15682;56.742;38.866;2024-03-17T06:40:07;99630.0;;;1.8;82.2
28456;BME280;15682;56.742;38.866;2024-03-17T06:42:06;99630.0;;;1.8;81.7
28456;BME280;15682;56.742;38.866;2024-03-17T06:44:05;99630.0;;;1.8;81.9
28456;BME280;15682;56.742;38.866;2024-03-17T06:46:06;99630.0;;;1.8;81.9
28456;BME280;15682;56.742;38.866;2024-03-17T06:48:06;99630.0;;;2.0;81.9
28456;BME280;15682;56.742;38.866;2024-03-17T06:50:07;99630.0;;;2.0;81.9
28456;BME280;15682;56.742;38.866;2024-03-17T06:52:06;99630.0;;;2.0;81.9
28456;BME280;15682;56.742;38.866;2024-03-17T06:54:06;99630.0;;;2.0;81.4
28456;BME280;15682;56.742;38.866;2024-03-17T06:56:06;99630.0;;;2.2;81.0
28456;BME280;15682;56.742;38.866;2024-03-17T06:58:06;99630.0;;;2.2;81.0
28456;BME280;15682;56.742;38.866;2024-03-17T07:00:07;99630.0;;;2.2;81.0
28456;BME280;15682;56.742;38.866;2024-03-17T07:02:07;99630.0;;;2.2;81.0
28456;BME280;15682;56.742;38.866;2024-03-17T07:04:06;99630.0;;;2.2;80.9
28456;BME280;15682;56.742;38.866;2024-03-17T07:06:06;99630.0;;;2.3;80.9
28456;BME280;15682;56.742;38.866;2024-03-17T07:08:06;99630.0;;;2.4;80.9
28456;BME280;15682;56.742;38.866;2024-03-17T07:10:06;99630.0;;;2.4;80.9
28456;BME280;15682;56.742;38.866;2024-03-17T07:12:06;99620.0;;;2.4;80.9
28456;BME280;15682;56.742;38.866;2024-03-17T07:14:06;99620.0;;;2.6;80.6
28456;BME280;15682;56.742;38.866;2024-03-17T07:16:06;99620.0;;;2.7;80.3
28456;BME280;15682;56.742;38.866;2024-03-17T07:18:06;99620.0;;;2.7;80.3
28456;BME280;15682;56.742;38.866;2024-03-17T07:20:07;99620.0;;;2.8;79.8
28456;BME280;15682;56.742;38.866;2024-03-17T07:22:06;99620.0;;;3.0;79.8
28456;BME280;15682;56.742;38.866;2024-03-17T07:24:06;99620.0;;;2.8;79.6
28456;BME280;15682;56.742;38.866;2024-03-17T07:26:06;99620.0;;;2.9;79.6
28456;BME280;15682;56.742;38.866;2024-03-17T07:28:06;99620.0;;;2.9;79.6
28456;BME280;15682;56.742;38.866;2024-03-17T07:30:07;99620.0;;;3.1;79.6
28456;BME280;15682;56.742;38.866;2024-03-17T07:32:06;99610.0;;;3.1;79.6
28456;BME280;15682;56.742;38.866;2024-03-17T07:34:06;99600.0;;;3.3;79.1
28456;BME280;15682;56.742;38.866;2024-03-17T07:36:07;99600.0;;;3.4;79.1
28456;BME280;15682;56.742;38.866;2024-03-17T07:38:06;99600.0;;;3.4;79.1
28456;BME280;15682;56.742;38.866;2024-03-17T07:40:07;99600.0;;;3.4;79.1
28456;BME280;15682;56.742;38.866;2024-03-17T07:42:06;99600.0;;;3.5;79.1
28456;BME280;15682;56.742;38.866;2024-03-17T07:44:06;99600.0;;;3.5;78.6
28456;BME280;15682;56.742;38.866;2024-03-17T07:46:07;99600.0;;;3.7;78.6
28456;BME280;15682;56.742;38.866;2024-03-17T07:48:07;99600.0;;;3.7;78.3
28456;BME280;15682;56.742;38.866;2024-03-17T07:50:07;99600.0;;;3.7;79.1
28456;BME280;15682;56.742;38.866;2024-03-17T07:52:06;99600.0;;;3.5;79.1
28456;BME280;15682;56.742;38.866;2024-03-17T07:54:06;99600.0;;;3.7;79.1
28456;BME280;15682;56.742;38.866;2024-03-17T07:56:08;99600.0;;;3.8;78.4
28456;BME280;15682;56.742;38.866;2024-03-17T07:58:07;99600.0;;;3.7;78.4
28456;BME280;15682;56.742;38.866;2024-03-17T08:00:07;99600.0;;;3.8;78.4
28456;BME280;15682;56.742;38.866;2024-03-17T08:02:07;99600.0;;;3.9;78.4
28456;BME280;15682;56.742;38.866;2024-03-17T08:04:07;99600.0;;;3.9;78.3
28456;BME280;15682;56.742;38.866;2024-03-17T08:06:08;99600.0;;;3.9;78.3
28456;BME280;15682;56.742;38.866;2024-03-17T08:08:07;99600.0;;;4.1;78.3
28456;BME280;15682;56.742;38.866;2024-03-17T08:10:07;99600.0;;;4.1;78.3
28456;BME280;15682;56.742;38.866;2024-03-17T08:12:07;99590.0;;;4.0;78.3
28456;BME280;15682;56.742;38.866;2024-03-17T08:14:07;99590.0;;;4.0;78.7
28456;BME280;15682;56.742;38.866;2024-03-17T08:16:07;99580.0;;;4.0;78.7
28456;BME280;15682;56.742;38.866;2024-03-17T08:18:07;99580.0;;;4.3;77.9
28456;BME280;15682;56.742;38.866;2024-03-17T08:20:08;99580.0;;;4.3;77.9
28456;BME280;15682;56.742;38.866;2024-03-17T08:22:07;99580.0;;;4.2;77.9
28456;BME280;15682;56.742;38.866;2024-03-17T08:24:07;99580.0;;;4.4;78.0
28456;BME280;15682;56.742;38.866;2024-03-17T08:26:07;99580.0;;;4.3;78.0
28456;BME280;15682;56.742;38.866;2024-03-17T08:28:07;99580.0;;;4.3;78.0
28456;BME280;15682;56.742;38.866;2024-03-17T08:30:09;99580.0;;;4.3;78.0
28456;BME280;15682;56.742;38.866;2024-03-17T08:32:07;99580.0;;;4.5;78.0
28456;BME280;15682;56.742;38.866;2024-03-17T08:34:08;99580.0;;;4.6;78.1
28456;BME280;15682;56.742;38.866;2024-03-17T08:36:09;99570.0;;;4.7;77.3
28456;BME280;15682;56.742;38.866;2024-03-17T08:38:08;99570.0;;;4.7;77.3
28456;BME280;15682;56.742;38.866;2024-03-17T08:40:08;99570.0;;;4.7;77.8
28456;BME280;15682;56.742;38.866;2024-03-17T08:42:08;99570.0;;;4.7;77.8
28456;BME280;15682;56.742;38.866;2024-03-17T08:44:08;99570.0;;;4.7;77.9
28456;BME280;15682;56.742;38.866;2024-03-17T08:46:09;99570.0;;;4.8;77.2
28456;BME280;15682;56.742;38.866;2024-03-17T08:48:08;99570.0;;;4.8;77.8
28456;BME280;15682;56.742;38.866;2024-03-17T08:50:09;99570.0;;;4.8;77.8
28456;BME280;15682;56.742;38.866;2024-03-17T08:52:08;99570.0;;;4.9;77.3
28456;BME280;15682;56.742;38.866;2024-03-17T08:54:08;99570.0;;;5.1;77.0
28456;BME280;15682;56.742;38.866;2024-03-17T08:56:08;99570.0;;;5.0;77.0
28456;BME280;15682;56.742;38.866;2024-03-17T08:58:09;99570.0;;;5.0;77.0
28456;BME280;15682;56.742;38.866;2024-03-17T09:00:09;99570.0;;;5.0;77.0
28456;BME280;15682;56.742;38.866;2024-03-17T09:02:13;99570.0;;;5.0;77.0
28456;BME280;15682;56.742;38.866;2024-03-17T09:04:09;99570.0;;;5.0;77.0
28456;BME280;15682;56.742;38.866;2024-03-17T09:06:14;99570.0;;;5.1;77.0
28456;BME280;15682;56.742;38.866;2024-03-17T09:08:16;99570.0;;;5.1;77.0
28456;BME280;15682;56.742;38.866;2024-03-17T09:10:09;99570.0;;;5.1;77.0
28456;BME280;15682;56.742;38.866;2024-03-17T09:12:09;99570.0;;;5.1;77.0
28456;BME280;15682;56.742;38.866;2024-03-17T09:14:09;99570.0;;;5.2;76.5
28456;BME280;15682;56.742;38.866;2024-03-17T09:16:10;99550.0;;;5.2;76.5
28456;BME280;15682;56.742;38.866;2024-03-17T09:18:09;99550.0;;;5.2;77.0
28456;BME280;15682;56.742;38.866;2024-03-17T09:20:12;99550.0;;;5.2;77.0
28456;BME280;15682;56.742;38.866;2024-03-17T09:22:09;99550.0;;;5.0;77.0
28456;BME280;15682;56.742;38.866;2024-03-17T09:24:10;99550.0;;;5.0;76.7
28456;BME280;15682;56.742;38.866;2024-03-17T09:26:11;99550.0;;;5.1;77.6
28456;BME280;15682;56.742;38.866;2024-03-17T09:28:10;99550.0;;;5.2;77.0
28456;BME280;15682;56.742;38.866;2024-03-17T09:30:11;99550.0;;;5.2;77.0
28456;BME280;15682;56.742;38.866;2024-03-17T09:32:10;99550.0;;;5.0;77.0
28456;BME280;15682;56.742;38.866;2024-03-17T09:34:10;99550.0;;;5.2;77.8
28456;BME280;15682;56.742;38.866;2024-03-17T09:36:10;99550.0;;;5.3;77.3
28456;BME280;15682;56.742;38.866;2024-03-17T09:38:10;99550.0;;;5.5;77.8
28456;BME280;15682;56.742;38.866;2024-03-17T09:40:14;99550.0;;;5.8;77.8
28456;BME280;15682;56.742;38.866;2024-03-17T09:42:17;99550.0;;;5.8;77.8
28456;BME280;15682;56.742;38.866;2024-03-17T09:44:12;99550.0;;;6.0;77.7
28456;BME280;15682;56.742;38.866;2024-03-17T09:46:11;99550.0;;;6.0;77.3
28456;BME280;15682;56.742;38.866;2024-03-17T09:48:14;99550.0;;;6.1;77.3
28456;BME280;15682;56.742;38.866;2024-03-17T09:50:13;99550.0;;;6.1;77.3
28456;BME280;15682;56.742;38.866;2024-03-17T09:52:19;99550.0;;;6.1;77.3
28456;BME280;15682;56.742;38.866;2024-03-17T09:54:17;99550.0;;;6.1;77.1
28456;BME280;15682;56.742;38.866;2024-03-17T09:56:13;99550.0;;;6.2;77.1
28456;BME280;15682;56.742;38.866;2024-03-17T09:58:15;99550.0;;;6.2;77.1
28456;BME280;15682;56.742;38.866;2024-03-17T10:00:13;99550.0;;;6.0;77.1
28456;BME280;15682;56.742;38.866;2024-03-17T10:02:16;99550.0;;;6.0;77.1
28456;BME280;15682;56.742;38.866;2024-03-17T10:04:11;99550.0;;;6.0;76.7
28456;BME280;15682;56.742;38.866;2024-03-17T10:06:12;99540.0;;;6.0;76.7
28456;BME280;15682;56.742;38.866;2024-03-17T10:08:20;99540.0;;;6.0;77.3
28456;BME280;15682;56.742;38.866;2024-03-17T10:10:12;99540.0;;;6.0;77.3
28456;BME280;15682;56.742;38.866;2024-03-17T10:12:28;99540.0;;;6.0;77.3
28456;BME280;15682;56.742;38.866;2024-03-17T10:14:16;99540.0;;;6.0;77.1
28456;BME280;15682;56.742;38.866;2024-03-17T10:16:27;99530.0;;;6.0;77.1
28456;BME280;15682;56.742;38.866;2024-03-17T10:18:20;99530.0;;;6.1;77.1
28456;BME280;15682;56.742;38.866;2024-03-17T10:20:14;99530.0;;;6.1;76.6
28456;BME280;15682;56.742;38.866;2024-03-17T10:22:12;99530.0;;;6.0;76.6
28456;BME280;15682;56.742;38.866;2024-03-17T10:24:13;99530.0;;;6.0;76.7
28456;BME280;15682;56.742;38.866;2024-03-17T10:26:14;99530.0;;;6.0;76.7
28456;BME280;15682;56.742;38.866;2024-03-17T10:28:14;99530.0;;;6.0;76.7
28456;BME280;15682;56.742;38.866;2024-03-17T10:30:18;99530.0;;;6.2;76.6
28456;BME280;15682;56.742;38.866;2024-03-17T10:32:14;99530.0;;;6.2;76.1
28456;BME280;15682;56.742;38.866;2024-03-17T10:34:15;99530.0;;;6.2;76.3
28456;BME280;15682;56.742;38.866;2024-03-17T10:36:17;99520.0;;;6.0;76.3
28456;BME280;15682;56.742;38.866;2024-03-17T10:38:13;99520.0;;;6.2;76.3
28456;BME280;15682;56.742;38.866;2024-03-17T10:40:13;99520.0;;;6.2;76.3
28456;BME280;15682;56.742;38.866;2024-03-17T10:42:13;99510.0;;;6.2;76.3
28456;BME280;15682;56.742;38.866;2024-03-17T10:44:13;99500.0;;;6.2;76.3
28456;BME280;15682;56.742;38.866;2024-03-17T10:46:15;99500.0;;;6.1;76.3
28456;BME280;15682;56.742;38.866;2024-03-17T10:48:16;99500.0;;;6.1;76.3
28456;BME280;15682;56.742;38.866;2024-03-17T10:50:17;99500.0;;;6.1;76.3
28456;BME280;15682;56.742;38.866;2024-03-17T10:52:16;99500.0;;;6.1;76.3
28456;BME280;15682;56.742;38.866;2024-03-17T10:54:21;99500.0;;;6.1;76.2
28456;BME280;15682;56.742;38.866;2024-03-17T10:56:15;99500.0;;;6.3;76.2